Time;durP1;ratioP1;P1;durP2;ratioP2;P2;SDS_P1;SDS_P2;PMS_P1;PMS_P2;Temp;Humidity;BMP_temperature;BMP_pressure;BME280_temperature;BME280_humidity;BME280_pressure;Samples;Min_cycle;Max_cycle;Signal;HPM_P1;HPM_P2
2021/11/12 00:02:14;;;;;;;33.77;15.80;;;;;;;7.31;100.00;101595.59;4909539;29;20055;-83
2021/11/12 00:11:46;;;;;;;40.22;19.65;;;;;;;7.31;100.00;101592.97;4914627;29;20410;-86
2021/11/12 00:16:07;;;;;;;38.03;17.83;;;;;;;7.27;100.00;101590.28;4885842;29;20115;-85
2021/11/12 00:18:35;;;;;;;40.17;17.40;;;;;;;7.26;100.00;101593.78;4889710;29;20419;-83
2021/11/12 00:21:03;;;;;;;45.40;19.48;;;;;;;7.26;100.00;101586.78;4900051;29;20040;-82
2021/11/12 00:23:33;;;;;;;42.03;20.27;;;;;;;7.31;100.00;101586.81;4896364;29;20118;-85
2021/11/12 00:26:02;;;;;;;40.10;19.00;;;;;;;7.27;100.00;101590.28;4903351;29;20577;-85
2021/11/12 00:28:35;;;;;;;45.00;21.10;;;;;;;7.26;100.00;101585.91;4894961;29;20079;-84
2021/11/12 00:39:25;;;;;;;41.00;19.33;;;;;;;7.24;100.00;101593.78;4896232;29;20048;-82
2021/11/12 00:42:02;;;;;;;44.85;20.35;;;;;;;7.26;100.00;101586.78;4904327;29;20060;-83
2021/11/12 00:47:04;;;;;;;40.30;18.90;;;;;;;7.24;100.00;101599.03;4897131;29;20059;-83
2021/11/12 00:49:35;;;;;;;38.58;18.42;;;;;;;7.24;100.00;101599.03;4902856;29;20056;-83
2021/11/12 00:52:07;;;;;;;37.08;16.88;;;;;;;7.22;100.00;101594.63;4903938;29;20536;-85
2021/11/12 00:54:34;;;;;;;37.22;17.98;;;;;;;7.21;100.00;101592.88;4911188;29;20047;-83
2021/11/12 00:57:01;;;;;;;37.17;18.58;;;;;;;7.22;100.00;101592.88;4998060;23;20048;-82
2021/11/12 00:59:28;;;;;;;43.45;19.33;;;;;;;7.21;100.00;101604.25;4903092;29;20047;-82
2021/11/12 01:01:55;;;;;;;39.20;18.73;;;;;;;7.20;100.00;101597.25;4933544;29;20096;-85
2021/11/12 01:04:23;;;;;;;38.63;18.92;;;;;;;7.20;100.00;101599.00;4899217;29;20131;-83
2021/11/12 01:06:50;;;;;;;45.85;20.80;;;;;;;7.18;100.00;101587.59;4942119;29;20043;-82
2021/11/12 01:09:19;;;;;;;40.00;19.98;;;;;;;7.19;100.00;101595.47;4918535;29;20094;-83
2021/11/12 01:11:48;;;;;;;33.80;16.90;;;;;;;7.21;100.00;101603.38;4901024;29;20052;-82
2021/11/12 01:14:21;;;;;;;35.40;18.30;;;;;;;7.17;100.00;101604.22;4901986;29;20433;-86
2021/11/12 01:16:49;;;;;;;36.22;17.63;;;;;;;7.15;100.00;101606.84;4886314;29;20268;-83
2021/11/12 01:19:16;;;;;;;41.67;18.05;;;;;;;7.15;100.00;101603.34;4901557;29;20050;-82
2021/11/12 01:21:44;;;;;;;39.20;19.95;;;;;;;7.18;100.00;101609.50;4902368;29;20152;-83
2021/11/12 01:24:11;;;;;;;34.83;19.10;;;;;;;7.17;100.00;101610.38;4884933;29;20036;-84
2021/11/12 01:26:37;;;;;;;39.30;19.70;;;;;;;7.18;100.00;101612.13;4898186;29;20040;-83
2021/11/12 01:29:05;;;;;;;35.03;16.20;;;;;;;7.14;100.00;101606.81;4917063;29;20552;-83
2021/11/12 01:31:32;;;;;;;40.03;18.40;;;;;;;7.17;100.00;101606.88;4918874;29;20134;-83
2021/11/12 01:34:07;;;;;;;37.95;18.17;;;;;;;7.16;100.00;101602.47;4917412;29;20036;-83
2021/11/12 01:36:38;;;;;;;53.10;20.63;;;;;;;7.19;100.00;101611.25;4888159;29;20058;-83
2021/11/12 01:39:11;;;;;;;36.83;18.90;;;;;;;7.17;100.00;101606.88;4917391;29;20040;-83
2021/11/12 01:41:44;;;;;;;40.25;18.55;;;;;;;7.15;100.00;101598.97;4901314;29;20042;-82
2021/11/12 01:44:12;;;;;;;34.67;16.88;;;;;;;7.14;100.00;101596.31;4901121;29;20036;-83
2021/11/12 01:47:08;;;;;;;37.27;17.23;;;;;;;7.17;100.00;101596.34;4917233;29;20039;-83
2021/11/12 01:49:55;;;;;;;34.33;16.73;;;;;;;7.12;100.00;101595.41;4930522;29;20051;-83
2021/11/12 01:52:36;;;;;;;38.05;16.90;;;;;;;7.10;100.00;101590.16;4917043;29;20040;-84
2021/11/12 01:55:14;;;;;;;39.95;18.83;;;;;;;7.09;100.00;101591.03;4918412;29;20043;-83
2021/11/12 02:00:13;;;;;;;41.53;18.90;;;;;;;7.15;100.00;101584.94;4933572;29;20048;-83
2021/11/12 02:02:40;;;;;;;36.53;15.57;;;;;;;7.09;100.00;101582.25;4917353;29;20044;-82
2021/11/12 02:05:08;;;;;;;38.17;18.87;;;;;;;7.11;100.00;101583.16;4932339;29;20126;-83
2021/11/12 02:07:36;;;;;;;38.00;17.90;;;;;;;7.10;100.00;101584.03;4915427;29;20751;-82
2021/11/12 02:10:06;;;;;;;37.40;18.43;;;;;;;7.09;100.00;101583.13;4900995;29;20063;-83
2021/11/12 02:12:42;;;;;;;38.73;17.97;;;;;;;7.13;100.00;101586.66;4903174;29;20051;-83
2021/11/12 02:15:09;;;;;;;36.40;18.63;;;;;;;7.13;100.00;101573.53;4918840;29;20040;-83
2021/11/12 02:17:38;;;;;;;36.22;16.90;;;;;;;7.07;100.00;101574.38;4897549;29;20052;-82
2021/11/12 02:20:14;;;;;;;35.67;16.83;;;;;;;7.05;100.00;101576.97;4914749;29;20048;-83
2021/11/12 02:22:41;;;;;;;44.45;19.45;;;;;;;7.08;100.00;101578.75;4902977;29;20047;-83
2021/11/12 02:25:13;;;;;;;36.80;17.73;;;;;;;7.07;100.00;101584.88;4901601;29;20130;-82
2021/11/12 02:30:21;;;;;;;39.85;17.95;;;;;;;7.02;100.00;101570.81;4902159;29;20040;-85
2021/11/12 02:33:13;;;;;;;39.58;16.55;;;;;;;7.04;100.00;101574.31;4916698;29;20176;-83
2021/11/12 02:35:57;;;;;;;36.33;17.25;;;;;;;7.02;100.00;101569.06;4915134;29;20039;-82
2021/11/12 02:38:24;;;;;;;38.55;16.33;;;;;;;7.01;100.00;101567.31;4900093;29;20048;-83
2021/11/12 02:40:51;;;;;;;43.23;19.17;;;;;;;7.03;100.00;101569.94;4914430;29;20044;-83
2021/11/12 02:43:18;;;;;;;37.77;16.50;;;;;;;7.03;100.00;101572.56;4900471;29;20048;-83
2021/11/12 02:45:45;;;;;;;36.92;16.60;;;;;;;7.01;100.00;101567.31;4917169;29;20051;-85
2021/11/12 02:48:13;;;;;;;35.20;16.77;;;;;;;7.01;100.00;101566.44;4917030;29;20048;-83
2021/11/12 02:50:40;;;;;;;36.58;17.42;;;;;;;7.01;100.00;101571.69;4915389;29;20044;-83
2021/11/12 02:53:15;;;;;;;30.30;14.73;;;;;;;7.02;100.00;101570.81;4917412;29;20056;-86
2021/11/12 02:55:44;;;;;;;37.50;16.70;;;;;;;7.02;100.00;101573.44;4899089;29;20040;-85
2021/11/12 02:58:11;;;;;;;38.20;18.25;;;;;;;7.07;100.00;101571.75;4933014;29;20047;-85
2021/11/12 03:00:40;;;;;;;38.10;17.73;;;;;;;7.03;100.00;101568.19;4914800;29;20474;-83
2021/11/12 03:03:07;;;;;;;38.00;17.77;;;;;;;7.03;100.00;101569.94;4915266;29;20493;-84
2021/11/12 03:05:35;;;;;;;36.47;17.00;;;;;;;7.03;100.00;101569.94;4917286;29;20052;-83
2021/11/12 03:08:02;;;;;;;36.58;16.23;;;;;;;7.02;100.00;101570.81;4884891;29;20458;-85
2021/11/12 03:10:30;;;;;;;40.35;17.63;;;;;;;7.07;100.00;101563.00;4897165;29;20048;-83
2021/11/12 03:12:56;;;;;;;42.42;17.52;;;;;;;7.06;100.00;101559.44;4918568;29;20501;-83
2021/11/12 03:15:24;;;;;;;33.67;16.50;;;;;;;7.04;100.00;101558.56;4917425;29;20401;-83
2021/11/12 03:17:52;;;;;;;38.15;18.13;;;;;;;7.05;100.00;101562.94;4887243;29;20044;-83
2021/11/12 03:20:20;;;;;;;36.15;18.10;;;;;;;7.03;100.00;101562.94;4916663;29;20409;-83
2021/11/12 03:23:00;;;;;;;35.35;17.23;;;;;;;7.04;100.00;101561.19;4927895;29;20139;-84
2021/11/12 03:25:41;;;;;;;37.05;17.40;;;;;;;7.04;100.00;101555.94;4883850;29;20048;-83
2021/11/12 04:00:41;;;;;;;36.53;15.33;;;;;;;7.02;100.00;101557.69;4857259;29;21559;-85
2021/11/12 04:03:18;;;;;;;40.92;18.02;;;;;;;7.04;100.00;101562.06;4895237;29;20055;-82
2021/11/12 04:17:36;;;;;;;32.87;16.73;;;;;;;7.00;100.00;101552.41;4921774;29;20071;-83
2021/11/12 04:20:11;;;;;;;40.33;16.90;;;;;;;7.02;100.00;101549.78;4890209;29;20131;-82
2021/11/12 04:39:53;;;;;;;34.60;17.03;;;;;;;7.01;100.00;101540.16;4895781;29;20056;-83
2021/11/12 05:25:39;;;;;;;33.37;16.30;;;;;;;7.04;100.00;101537.53;4900905;29;20394;-82
2021/11/12 05:34:23;;;;;;;39.23;19.10;;;;;;;7.07;100.00;101542.84;4910420;29;20044;-82
2021/11/12 05:45:09;;;;;;;47.83;19.63;;;;;;;7.06;100.00;101522.66;4915702;29;20402;-82
2021/11/12 05:50:34;;;;;;;40.22;19.17;;;;;;;7.10;100.00;101523.59;4904857;29;20502;-82
2021/11/12 05:55:49;;;;;;;35.95;17.20;;;;;;;7.05;100.00;101531.41;4937341;29;20048;-83
2021/11/12 05:58:16;;;;;;;39.75;18.88;;;;;;;7.03;100.00;101523.53;4902209;29;20059;-83
2021/11/12 06:00:42;;;;;;;40.58;17.40;;;;;;;7.05;100.00;101520.91;4934031;29;20090;-83
2021/11/12 06:03:10;;;;;;;42.63;20.20;;;;;;;7.07;100.00;101532.34;4934581;29;20048;-84
2021/11/12 06:05:37;;;;;;;43.63;19.20;;;;;;;7.05;100.00;101536.66;4933971;29;20528;-83
2021/11/12 06:08:03;;;;;;;41.40;17.53;;;;;;;7.04;100.00;101534.91;4934707;29;20111;-83
2021/11/12 06:10:31;;;;;;;41.95;18.00;;;;;;;7.06;100.00;101548.94;4902152;29;20046;-83
2021/11/12 06:12:57;;;;;;;44.63;19.50;;;;;;;7.08;100.00;101541.97;4903058;29;20047;-83
2021/11/12 06:15:24;;;;;;;41.17;17.73;;;;;;;7.05;100.00;101548.06;4923739;29;20044;-83
2021/11/12 06:17:51;;;;;;;41.47;18.58;;;;;;;7.04;100.00;101537.53;4900044;29;20044;-83
2021/11/12 06:20:18;;;;;;;42.30;18.33;;;;;;;7.06;100.00;101541.06;4898466;29;20048;-83
2021/11/12 06:22:45;;;;;;;44.33;18.87;;;;;;;7.05;100.00;101545.44;4915338;29;20044;-83
2021/11/12 06:25:11;;;;;;;47.58;21.15;;;;;;;7.08;100.00;101546.34;4905943;29;20445;-83
2021/11/12 06:27:38;;;;;;;42.23;18.73;;;;;;;7.09;100.00;101534.97;4902587;29;20504;-83
2021/11/12 06:30:07;;;;;;;41.50;18.60;;;;;;;7.08;100.00;101535.84;4913990;29;20454;-83
2021/11/12 06:32:34;;;;;;;37.67;18.23;;;;;;;7.05;100.00;101537.53;4899918;29;20048;-83
2021/11/12 06:35:01;;;;;;;39.40;17.67;;;;;;;7.07;100.00;101541.97;4884791;29;20116;-83
2021/11/12 06:37:28;;;;;;;42.63;19.60;;;;;;;7.06;100.00;101530.53;4918145;29;20078;-84
2021/11/12 06:39:55;;;;;;;39.42;17.05;;;;;;;7.04;100.00;101535.78;4914723;29;20099;-84
2021/11/12 06:42:27;;;;;;;43.30;17.80;;;;;;;7.04;100.00;101541.03;4899806;29;20052;-83
2021/11/12 06:50:24;;;;;;;40.33;20.20;;;;;;;7.05;100.00;101555.06;4885063;29;20129;-83
2021/11/12 06:52:51;;;;;;;44.83;19.80;;;;;;;7.09;100.00;101553.34;4899412;29;20095;-83
2021/11/12 06:55:18;;;;;;;41.60;19.58;;;;;;;7.10;100.00;101550.75;4912756;29;20048;-83
2021/11/12 06:57:46;;;;;;;42.23;20.00;;;;;;;7.11;100.00;101551.63;4883372;29;20048;-83
2021/11/12 07:00:16;;;;;;;43.53;19.20;;;;;;;7.12;100.00;101548.13;4913491;29;20080;-84
2021/11/12 07:02:43;;;;;;;43.67;18.43;;;;;;;7.27;100.00;101550.88;4898682;29;20047;-83
2021/11/12 07:05:10;;;;;;;38.75;17.20;;;;;;;7.14;100.00;101555.13;4912715;29;20051;-83
2021/11/12 07:07:37;;;;;;;37.17;15.35;;;;;;;7.11;100.00;101557.75;4980206;23;20028;-88
2021/11/12 07:10:05;;;;;;;37.40;16.00;;;;;;;7.10;100.00;101555.13;4923387;29;20107;-83
2021/11/12 07:12:32;;;;;;;30.23;13.90;;;;;;;7.10;100.00;101557.75;4922018;29;20055;-83
2021/11/12 07:14:59;;;;;;;29.60;14.88;;;;;;;7.10;100.00;101547.22;4936476;29;20054;-86
2021/11/12 07:17:25;;;;;;;41.77;17.20;;;;;;;7.11;100.00;101541.09;4922153;29;20062;-84
2021/11/12 07:19:52;;;;;;;36.67;16.83;;;;;;;7.10;100.00;101553.38;4936559;29;20054;-83
2021/11/12 07:22:19;;;;;;;38.25;16.05;;;;;;;7.10;100.00;101552.50;4937923;29;20047;-84
2021/11/12 07:24:45;;;;;;;42.77;18.93;;;;;;;7.08;100.00;101548.97;4936501;29;20110;-84
2021/11/12 07:27:13;;;;;;;31.98;15.35;;;;;;;7.09;100.00;101548.97;4921658;29;20047;-83
2021/11/12 07:30:00;;;;;;;36.10;17.15;;;;;;;7.09;100.00;101551.59;4939212;29;20118;-85
2021/11/12 07:32:27;;;;;;;37.80;16.95;;;;;;;7.10;100.00;101548.09;4921979;29;20059;-84
2021/11/12 07:34:56;;;;;;;35.53;15.43;;;;;;;7.11;100.00;101547.25;4936481;29;20043;-86
2021/11/12 07:37:27;;;;;;;39.43;16.17;;;;;;;7.14;100.00;101547.25;4953403;28;20043;-83
2021/11/12 07:39:54;;;;;;;39.22;16.38;;;;;;;7.13;100.00;101537.63;4936728;29;20058;-86
2021/11/12 07:45:07;;;;;;;38.37;16.37;;;;;;;7.17;100.00;101528.03;4935678;29;20083;-84
2021/11/12 07:47:34;;;;;;;39.20;18.35;;;;;;;7.18;100.00;101528.03;4921437;29;20043;-82
2021/11/12 07:50:05;;;;;;;40.00;18.33;;;;;;;7.20;100.00;101528.03;4908681;29;20047;-83
2021/11/12 07:52:33;;;;;;;35.37;16.07;;;;;;;7.20;100.00;101521.03;4907520;29;20074;-83
2021/11/12 07:55:00;;;;;;;44.42;18.38;;;;;;;7.23;100.00;101531.59;4932574;29;20568;-87
2021/11/12 07:57:27;;;;;;;43.42;18.15;;;;;;;7.24;100.00;101533.34;4917745;29;20048;-84
2021/11/12 07:59:55;;;;;;;34.58;17.23;;;;;;;7.24;100.00;101535.09;4908783;29;20110;-88
2021/11/12 08:02:22;;;;;;;32.90;15.20;;;;;;;7.25;100.00;101537.72;4921491;29;20048;-83
2021/11/12 08:04:56;;;;;;;38.00;15.43;;;;;;;7.23;100.00;101539.47;4935507;29;20043;-83
2021/11/12 08:07:25;;;;;;;36.08;14.13;;;;;;;7.23;100.00;101526.31;4936618;29;20043;-85
2021/11/12 08:09:54;;;;;;;34.13;16.33;;;;;;;7.24;100.00;101519.31;4935649;28;20555;-84
2021/11/12 08:12:24;;;;;;;34.40;15.32;;;;;;;7.25;100.00;101513.19;4921467;29;20047;-83
2021/11/12 08:15:18;;;;;;;36.50;15.30;;;;;;;7.26;100.00;101510.56;4935491;29;20043;-83
2021/11/12 08:17:52;;;;;;;36.20;16.85;;;;;;;7.30;100.00;101514.97;4936403;29;20047;-82
2021/11/12 08:20:25;;;;;;;41.08;19.00;;;;;;;7.30;100.00;101516.72;4935225;29;20039;-83
2021/11/12 08:23:03;;;;;;;44.13;18.63;;;;;;;7.33;100.00;101512.38;4952535;29;20055;-83
2021/11/12 08:25:44;;;;;;;39.83;17.55;;;;;;;7.36;100.00;101519.38;4935098;29;20036;-83
2021/11/12 08:30:55;;;;;;;39.53;18.00;;;;;;;7.36;100.00;101508.88;4950688;28;20047;-83
2021/11/12 08:39:31;;;;;;;38.55;18.40;;;;;;;7.43;100.00;101500.16;4916349;29;20488;-83
2021/11/12 08:42:08;;;;;;;41.15;18.35;;;;;;;7.45;100.00;101495.78;4937623;29;20646;-85
2021/11/12 08:44:43;;;;;;;39.22;18.20;;;;;;;7.48;100.00;101500.16;4945165;28;20055;-83
2021/11/12 08:47:18;;;;;;;41.40;18.30;;;;;;;7.49;100.00;101494.94;4953175;28;20089;-84
2021/11/12 08:49:45;;;;;;;41.20;19.30;;;;;;;7.46;100.00;101494.03;4938476;28;20053;-84
2021/11/12 08:52:14;;;;;;;40.83;18.07;;;;;;;7.46;100.00;101494.03;4921176;29;20055;-85
2021/11/12 08:54:44;;;;;;;40.08;17.77;;;;;;;7.47;100.00;101490.53;4903868;29;20059;-83
2021/11/12 08:57:12;;;;;;;38.67;16.75;;;;;;;7.47;100.00;101494.03;4905123;29;20055;-83
2021/11/12 08:59:40;;;;;;;35.17;16.63;;;;;;;7.47;100.00;101491.41;4915514;29;20122;-83
2021/11/12 09:02:15;;;;;;;39.10;16.43;;;;;;;7.54;100.00;101493.19;4920578;29;20079;-83
2021/11/12 09:04:43;;;;;;;36.90;17.00;;;;;;;7.51;100.00;101497.56;4918011;29;20048;-86
2021/11/12 09:07:11;;;;;;;37.35;17.48;;;;;;;7.52;100.00;101494.94;4950192;29;20040;-85
2021/11/12 09:09:39;;;;;;;33.08;16.23;;;;;;;7.54;100.00;101502.84;4921415;29;20058;-87
2021/11/12 09:12:09;;;;;;;33.65;16.02;;;;;;;7.57;100.00;101500.25;4951636;29;20139;-84
2021/11/12 09:14:42;;;;;;;33.40;14.15;;;;;;;7.66;100.00;101505.53;4937426;29;20555;-86
2021/11/12 09:17:09;;;;;;;27.63;14.43;;;;;;;7.72;100.00;101508.19;4908055;29;20048;-86
2021/11/12 09:19:45;;;;;;;27.70;14.15;;;;;;;7.74;100.00;101514.34;4925090;29;20058;-84
2021/11/12 09:22:16;;;;;;;27.17;12.85;;;;;;;7.77;100.00;101506.47;4940813;29;20058;-84
2021/11/12 09:24:43;;;;;;;22.25;12.10;;;;;;;7.69;100.00;101500.28;4921503;29;20050;-87
2021/11/12 09:27:11;;;;;;;28.50;14.80;;;;;;;7.67;100.00;101495.91;4907091;29;20116;-83
2021/11/12 09:29:38;;;;;;;27.38;13.05;;;;;;;7.68;100.00;101489.75;4905829;29;20047;-85
2021/11/12 09:32:05;;;;;;;27.08;12.55;;;;;;;7.67;100.00;101496.78;4956353;28;20051;-86
2021/11/12 09:34:37;;;;;;;26.88;12.88;;;;;;;7.68;100.00;101487.13;4926667;29;20106;-83
2021/11/12 09:37:06;;;;;;;19.75;10.85;;;;;;;7.68;100.00;101495.91;4917398;29;20051;-85
2021/11/12 09:39:34;;;;;;;27.10;12.82;;;;;;;7.76;100.00;101488.94;4921747;29;20047;-83
2021/11/12 09:42:04;;;;;;;24.00;11.50;;;;;;;7.77;100.00;101489.81;4922326;29;20044;-86
2021/11/12 09:44:31;;;;;;;20.75;12.25;;;;;;;7.79;100.00;101477.53;4893843;29;20055;-83
2021/11/12 09:46:59;;;;;;;22.65;11.18;;;;;;;7.85;100.00;101478.44;4924848;29;20378;-84
2021/11/12 09:49:26;;;;;;;27.27;12.32;;;;;;;7.94;100.00;101474.97;4923792;29;20086;-86
2021/11/12 09:51:53;;;;;;;17.38;10.07;;;;;;;7.96;100.00;101475.84;4923746;29;20635;-84
2021/11/12 09:54:21;;;;;;;19.63;10.43;;;;;;;7.99;100.00;101470.59;4933809;29;20047;-83
2021/11/12 09:56:48;;;;;;;15.82;8.02;;;;;;;7.95;100.00;101478.47;4940097;29;20043;-85
2021/11/12 09:59:14;;;;;;;22.23;10.60;;;;;;;8.02;100.00;101462.72;4935679;29;20040;-83
2021/11/12 10:01:41;;;;;;;20.48;9.73;;;;;;;8.05;100.00;101454.81;4940009;29;20043;-84
2021/11/12 10:04:09;;;;;;;19.77;10.38;;;;;;;8.15;100.00;101450.44;4923000;29;20505;-86
2021/11/12 10:06:45;;;;;;;16.80;8.82;;;;;;;8.15;100.00;101448.69;4939686;29;20075;-84
2021/11/12 10:09:20;;;;;;;16.75;9.48;;;;;;;8.13;100.00;101450.44;4925773;29;20047;-86
2021/11/12 10:11:52;;;;;;;17.33;11.52;;;;;;;8.22;100.00;101436.41;4920732;29;20047;-83
2021/11/12 10:14:47;;;;;;;15.55;8.63;;;;;;;8.30;100.00;101439.06;4890104;29;20051;-84
2021/11/12 10:17:14;;;;;;;14.95;8.32;;;;;;;8.38;100.00;101435.59;4905678;29;20532;-84
2021/11/12 10:19:47;;;;;;;15.20;7.88;;;;;;;8.42;100.00;101421.56;4903426;29;20055;-85
2021/11/12 10:22:15;;;;;;;15.93;8.20;;;;;;;8.51;100.00;101418.06;4920894;29;20040;-85
2021/11/12 10:24:51;;;;;;;15.35;8.25;;;;;;;8.48;100.00;101418.03;4904728;29;20130;-86
2021/11/12 10:27:25;;;;;;;15.18;7.47;;;;;;;8.50;100.00;101413.69;4933140;28;20046;-86
2021/11/12 10:29:54;;;;;;;12.57;7.47;;;;;;;8.54;100.00;101411.91;4921553;29;20098;-84
2021/11/12 10:32:23;;;;;;;13.05;7.70;;;;;;;8.51;100.00;101406.66;4925920;29;20133;-84
2021/11/12 10:34:52;;;;;;;14.07;8.45;;;;;;;8.51;100.00;101398.75;4922731;29;20047;-84
2021/11/12 10:37:25;;;;;;;14.20;7.20;;;;;;;8.56;100.00;101407.50;4923883;29;20489;-84
2021/11/12 10:39:56;;;;;;;13.55;6.43;;;;;;;8.51;100.00;101406.66;4908890;29;20047;-84
2021/11/12 10:42:29;;;;;;;12.77;7.15;;;;;;;8.50;100.00;101405.78;4921113;29;20050;-85
2021/11/12 10:45:04;;;;;;;11.23;7.72;;;;;;;8.54;100.00;101407.53;4918541;29;20059;-84
2021/11/12 10:47:37;;;;;;;12.70;6.72;;;;;;;8.51;100.00;101399.63;4919229;29;20106;-84
2021/11/12 10:50:09;;;;;;;14.68;7.93;;;;;;;8.53;100.00;101399.63;4918166;29;20043;-84
2021/11/12 10:52:37;;;;;;;13.57;9.43;;;;;;;8.55;100.00;101400.50;4931363;29;20491;-84
2021/11/12 10:55:18;;;;;;;16.38;8.15;;;;;;;8.51;100.00;101404.03;4937473;29;20058;-83
2021/11/12 10:58:08;;;;;;;14.43;8.48;;;;;;;8.49;100.00;101392.59;4949168;29;20043;-84
2021/11/12 11:00:37;;;;;;;16.00;9.18;;;;;;;8.53;100.00;101405.78;4906516;29;20050;-84
2021/11/12 11:03:08;;;;;;;16.83;8.73;;;;;;;8.49;100.00;101400.50;4906607;29;20074;-84
2021/11/12 11:05:42;;;;;;;16.23;9.32;;;;;;;8.59;100.00;101399.63;4921571;29;20061;-84
2021/11/12 11:08:15;;;;;;;;;;;;;;;8.54;100.00;101394.34;4937328;29;20052;-84
2021/11/12 11:10:49;;;;;;;16.40;9.57;;;;;;;8.58;100.00;101389.97;4953671;28;19922;-85
2021/11/12 11:13:22;;;;;;;19.38;9.82;;;;;;;8.55;100.00;101388.19;4937316;29;20039;-85
2021/11/12 11:15:54;;;;;;;13.60;9.30;;;;;;;8.53;100.00;101382.06;4937527;29;20047;-85
2021/11/12 11:18:30;;;;;;;15.05;9.55;;;;;;;8.56;100.00;101379.41;4921758;29;20067;-83
2021/11/12 11:21:14;;;;;;;14.95;9.27;;;;;;;8.55;100.00;101382.06;4925134;29;20059;-86
2021/11/12 11:23:44;;;;;;;16.08;8.73;;;;;;;8.57;100.00;101375.03;4935255;29;20122;-83
2021/11/12 11:26:27;;;;;;;13.07;8.25;;;;;;;8.63;100.00;101367.13;4936977;29;20066;-84
2021/11/12 11:28:56;;;;;;;13.85;8.98;;;;;;;8.60;100.00;101367.16;4931544;29;20508;-83
2021/11/12 11:31:25;;;;;;;15.00;8.52;;;;;;;8.59;100.00;101368.03;4918438;29;20044;-84
2021/11/12 11:33:53;;;;;;;15.73;8.95;;;;;;;8.60;100.00;101365.38;4919421;29;20047;-83
2021/11/12 11:36:22;;;;;;;14.73;9.15;;;;;;;8.64;100.00;101350.44;4916307;29;20114;-83
2021/11/12 11:38:50;;;;;;;15.70;8.80;;;;;;;8.64;100.00;101347.81;4932454;29;20394;-85
2021/11/12 11:41:20;;;;;;;13.43;9.15;;;;;;;8.68;100.00;101339.03;4920856;29;20536;-83
2021/11/12 11:43:47;;;;;;;14.57;9.07;;;;;;;8.73;100.00;101330.22;4919807;29;20051;-85
2021/11/12 11:46:16;;;;;;;12.30;8.20;;;;;;;8.72;100.00;101322.31;4920794;29;20488;-84
2021/11/12 11:48:44;;;;;;;15.35;9.35;;;;;;;8.82;100.00;101324.06;4919073;29;20653;-83
2021/11/12 11:51:38;;;;;;;16.92;9.45;;;;;;;8.79;100.00;101323.19;4921452;29;20501;-83
2021/11/12 11:54:12;;;;;;;16.05;9.65;;;;;;;8.78;100.00;101319.69;4919342;29;20082;-83
2021/11/12 11:56:42;;;;;;;14.75;9.32;;;;;;;8.86;100.00;101317.03;4904778;29;20106;-84
2021/11/12 11:59:29;;;;;;;15.45;9.75;;;;;;;8.90;100.00;101310.84;4904399;29;20071;-85
2021/11/12 12:01:58;;;;;;;15.07;9.52;;;;;;;8.92;100.00;101302.09;4918063;29;20046;-83
2021/11/12 12:04:28;;;;;;;17.65;10.13;;;;;;;8.90;100.00;101292.41;4925850;29;20055;-85
2021/11/12 12:07:00;;;;;;;14.88;9.80;;;;;;;8.91;100.00;101294.16;4901959;29;20040;-83
2021/11/12 12:09:41;;;;;;;14.32;9.10;;;;;;;8.85;100.00;101297.72;4923337;29;20095;-87
2021/11/12 12:12:09;;;;;;;15.20;8.52;;;;;;;8.81;100.00;101300.34;4925503;29;20056;-85
2021/11/12 12:14:38;;;;;;;14.23;8.55;;;;;;;8.76;100.00;101292.47;4924133;29;20062;-86
2021/11/12 12:17:14;;;;;;;16.73;10.43;;;;;;;8.83;100.00;101294.22;4922227;29;20070;-83
2021/11/12 12:20:03;;;;;;;13.93;9.05;;;;;;;8.76;100.00;101292.47;4930940;29;20493;-85
2021/11/12 13:23:09;;;;;;;22.98;12.98;;;;;;;8.51;100.00;101264.44;4941107;29;20055;-85
2021/11/12 13:25:53;;;;;;;17.67;9.35;;;;;;;8.45;100.00;101255.66;4948954;29;20409;-84
2021/11/12 13:28:24;;;;;;;25.00;12.82;;;;;;;8.48;100.00;101253.91;4918873;28;20047;-83
2021/11/12 13:30:52;;;;;;;20.73;12.23;;;;;;;8.49;100.00;101245.13;4941077;29;20043;-84
2021/11/12 13:33:38;;;;;;;21.48;12.55;;;;;;;8.49;100.00;101246.00;4921602;29;20059;-83
2021/11/12 13:36:09;;;;;;;22.17;11.68;;;;;;;8.52;100.00;101234.59;4922070;29;20043;-84
2021/11/12 13:38:45;;;;;;;17.10;11.82;;;;;;;8.50;100.00;101239.88;4937817;29;20047;-83
2021/11/12 13:41:15;;;;;;;20.98;12.05;;;;;;;8.54;100.00;101238.09;4925795;28;20041;-85
2021/11/12 13:43:45;;;;;;;20.23;12.20;;;;;;;8.56;100.00;101238.97;4921925;29;20077;-84
2021/11/12 13:46:12;;;;;;;18.83;11.82;;;;;;;8.51;100.00;101233.72;4935031;29;20051;-84
2021/11/12 13:48:49;;;;;;;23.15;12.65;;;;;;;8.56;100.00;101231.06;4934974;29;20079;-83
2021/11/12 13:51:22;;;;;;;18.38;10.82;;;;;;;8.50;100.00;101241.63;4925390;29;20516;-83
2021/11/12 13:53:52;;;;;;;22.10;10.88;;;;;;;8.49;100.00;101239.84;4911246;29;20052;-83
2021/11/12 13:56:19;;;;;;;17.00;10.70;;;;;;;8.53;100.00;101226.69;4922148;29;20058;-83
2021/11/12 13:58:46;;;;;;;18.67;10.82;;;;;;;8.50;100.00;101231.97;4921331;29;20044;-82
2021/11/12 14:01:23;;;;;;;19.90;11.73;;;;;;;8.43;100.00;101231.09;4915802;29;20055;-84
2021/11/12 14:03:51;;;;;;;17.40;10.20;;;;;;;8.42;100.00;101229.34;4923983;29;20070;-84
2021/11/12 14:06:20;;;;;;;16.35;9.98;;;;;;;8.40;100.00;101220.56;4925536;28;20047;-84
2021/11/12 14:08:49;;;;;;;20.27;11.60;;;;;;;8.51;100.00;101223.19;4916215;29;20814;-85
2021/11/12 14:11:20;;;;;;;19.50;12.13;;;;;;;8.49;100.00;101229.31;4921183;29;20146;-84
2021/11/12 14:13:48;;;;;;;17.23;11.10;;;;;;;8.41;100.00;101221.47;4920688;29;20039;-82
2021/11/12 14:16:21;;;;;;;22.45;12.23;;;;;;;8.46;100.00;101224.94;4906618;29;20545;-85
2021/11/12 14:19:40;;;;;;;22.40;12.83;;;;;;;8.46;100.00;101222.31;4904494;29;20051;-83
2021/11/12 14:22:28;;;;;;;18.00;11.73;;;;;;;8.49;100.00;101216.16;4919314;29;20051;-84
2021/11/12 14:25:14;;;;;;;17.13;11.00;;;;;;;8.51;100.00;101220.56;4939727;29;20047;-83
2021/11/12 14:27:56;;;;;;;16.83;10.90;;;;;;;8.44;100.00;101221.44;4940294;29;20051;-82
2021/11/12 14:30:47;;;;;;;17.02;11.00;;;;;;;8.39;100.00;101218.81;4924818;29;20493;-84
2021/11/12 14:33:23;;;;;;;19.85;9.75;;;;;;;8.36;100.00;101208.31;4935150;29;20464;-83
2021/11/12 14:36:01;;;;;;;18.38;10.48;;;;;;;8.42;100.00;101208.28;4921300;29;20133;-84
2021/11/12 14:38:35;;;;;;;13.68;9.38;;;;;;;8.45;100.00;101210.91;4918270;29;20461;-84
2021/11/12 14:46:40;;;;;;;15.63;8.93;;;;;;;8.27;100.00;101200.41;4923528;29;20051;-83
2021/11/12 14:49:16;;;;;;;14.13;9.43;;;;;;;8.24;100.00;101195.16;4951214;28;20051;-83
2021/11/12 14:52:02;;;;;;;16.40;9.27;;;;;;;8.24;100.00;101186.34;4937523;29;20043;-84
2021/11/12 14:54:35;;;;;;;14.25;8.75;;;;;;;8.31;100.00;101186.34;4919459;29;20420;-83
2021/11/12 14:57:08;;;;;;;14.63;9.02;;;;;;;8.24;100.00;101186.34;4920483;29;20153;-83
2021/11/12 14:59:38;;;;;;;19.55;9.82;;;;;;;8.34;100.00;101185.47;4904927;29;20043;-83
2021/11/12 15:02:07;;;;;;;23.35;15.63;;;;;;;8.41;100.00;101179.34;4920719;29;20050;-83
2021/11/12 15:04:34;;;;;;;30.10;26.77;;;;;;;8.28;100.00;101183.72;4915470;29;20047;-85
2021/11/12 15:07:01;;;;;;;23.13;17.30;;;;;;;8.30;100.00;101167.91;4919984;29;20488;-83
2021/11/12 15:09:30;;;;;;;27.55;21.58;;;;;;;8.38;100.00;101180.22;4915263;29;20051;-82
2021/11/12 15:11:59;;;;;;;21.70;17.73;;;;;;;8.30;100.00;101174.06;4918191;29;20058;-82
2021/11/12 15:14:28;;;;;;;37.22;33.50;;;;;;;8.25;100.00;101167.06;4932118;28;20047;-83
2021/11/12 15:17:06;;;;;;;20.55;12.70;;;;;;;8.21;100.00;101174.09;4921037;29;20047;-86
2021/11/12 15:19:35;;;;;;;25.88;19.55;;;;;;;8.23;100.00;101174.94;4924960;29;20054;-84
2021/11/12 15:30:00;;;;;;;13.20;8.70;;;;;;;8.12;100.00;101161.81;4942230;29;20039;-84
2021/11/12 15:32:30;;;;;;;14.95;7.70;;;;;;;8.06;100.00;101168.84;4920233;29;20055;-84